createdAt,value
2019-02-23T00:01:18.120Z,77.79
2019-02-23T00:03:47.020Z,78.99
2019-02-23T00:06:15.787Z,79.18
2019-02-23T00:08:44.637Z,79.75
2019-02-23T00:11:13.436Z,80.24
2019-02-23T00:13:42.217Z,80.81
2019-02-23T00:16:11.082Z,81.08
2019-02-23T00:18:39.992Z,81.58
2019-02-23T00:21:08.785Z,81.49
2019-02-23T00:23:37.553Z,81.72
2019-02-23T00:26:06.504Z,81.43
2019-02-23T00:28:35.264Z,82.12
2019-02-23T00:31:04.112Z,82.42
2019-02-23T00:33:32.906Z,83.47
2019-02-23T00:36:01.977Z,83.38
2019-02-23T00:38:30.809Z,84.11
2019-02-23T00:40:59.577Z,83.78
2019-02-23T00:43:28.358Z,82.73
2019-02-23T00:45:57.147Z,82.82
2019-02-23T00:48:26.089Z,83.08
2019-02-23T00:50:54.883Z,82.70
2019-02-23T00:53:23.635Z,83.25
2019-02-23T00:55:52.520Z,82.35
2019-02-23T00:58:21.296Z,81.48
2019-02-23T01:00:50.133Z,80.34
2019-02-23T01:03:18.936Z,80.69
2019-02-23T01:05:47.700Z,80.54
2019-02-23T01:08:16.485Z,79.72
2019-02-23T01:10:45.266Z,79.65
2019-02-23T01:13:14.086Z,79.10
2019-02-23T01:15:42.924Z,79.06
2019-02-23T01:18:11.684Z,79.85
2019-02-23T01:20:40.540Z,79.87
2019-02-23T01:23:09.499Z,79.98
2019-02-23T01:25:38.262Z,78.28
2019-02-23T01:28:07.150Z,78.22
2019-02-23T01:30:35.991Z,77.56
2019-02-23T01:33:04.781Z,76.85
2019-02-23T01:35:33.650Z,77.41
2019-02-23T01:38:02.530Z,78.03
2019-02-23T01:40:31.373Z,78.20
2019-02-23T01:43:00.244Z,77.16
2019-02-23T01:45:29.165Z,77.49
2019-02-23T01:47:58.319Z,76.83
2019-02-23T01:50:27.150Z,77.32
2019-02-23T01:52:55.913Z,76.19
2019-02-23T01:55:24.684Z,74.51
2019-02-23T01:57:53.576Z,74.10
2019-02-23T02:00:22.623Z,72.96
2019-02-23T02:02:51.539Z,74.34
2019-02-23T02:05:20.411Z,74.54
2019-02-23T02:07:49.524Z,74.11
2019-02-23T02:10:18.900Z,73.48
2019-02-23T02:12:48.454Z,73.12
2019-02-23T02:15:17.275Z,72.87
2019-02-23T02:17:46.119Z,72.36
2019-02-23T02:20:15.725Z,72.86
2019-02-23T02:22:44.840Z,73.21
2019-02-23T02:25:13.659Z,73.65
2019-02-23T02:27:43.508Z,73.45
2019-02-23T02:30:13.414Z,74.62
2019-02-23T02:32:42.251Z,74.78
2019-02-23T02:35:11.874Z,75.45
2019-02-23T02:37:41.114Z,75.42
2019-02-23T02:40:10.072Z,75.56
2019-02-23T02:42:39.212Z,75.07
2019-02-23T02:45:09.668Z,74.64
2019-02-23T02:47:38.429Z,74.72
2019-02-23T02:50:09.341Z,75.27
2019-02-23T02:52:38.123Z,76.46
2019-02-23T02:55:08.160Z,76.97
2019-02-23T02:57:36.995Z,77.42
2019-02-23T03:00:07.387Z,77.91
2019-02-23T03:02:36.545Z,78.22
2019-02-23T03:05:06.647Z,79.09
2019-02-23T03:07:35.490Z,79.76
2019-02-23T03:10:04.487Z,79.77
2019-02-23T03:12:34.038Z,80.31
2019-02-23T03:15:03.517Z,80.08
2019-02-23T03:17:33.426Z,79.85
2019-02-23T03:20:02.603Z,79.16
2019-02-23T03:22:32.225Z,79.85
2019-02-23T03:25:01.331Z,80.25
2019-02-23T03:27:30.141Z,80.38
2019-02-23T03:29:58.979Z,80.20
2019-02-23T03:32:28.495Z,80.09
2019-02-23T03:34:57.646Z,80.97
2019-02-23T03:37:26.710Z,81.44
2019-02-23T03:39:55.510Z,82.34
2019-02-23T03:42:25.082Z,83.23
2019-02-23T03:44:54.920Z,83.03
2019-02-23T03:47:24.076Z,83.12
2019-02-23T03:49:54.011Z,82.68
2019-02-23T03:52:23.276Z,81.79
2019-02-23T03:54:53.155Z,81.54
2019-02-23T03:57:22.282Z,81.50
2019-02-23T03:59:51.054Z,81.57
2019-02-23T04:02:19.813Z,82.32
2019-02-23T04:04:48.620Z,82.97
2019-02-23T04:07:17.388Z,83.03
2019-02-23T04:09:46.180Z,82.52
2019-02-23T04:12:15.002Z,84.24
2019-02-23T04:14:44.247Z,85.33
2019-02-23T04:17:13.386Z,85.31
2019-02-23T04:19:42.997Z,85.64
2019-02-23T04:22:12.163Z,85.42
2019-02-23T04:24:40.931Z,85.79
2019-02-23T04:27:09.893Z,85.91
2019-02-23T04:29:39.455Z,86.83
2019-02-23T04:32:09.052Z,87.04
2019-02-23T04:34:38.835Z,86.81
2019-02-23T04:37:07.600Z,85.87
2019-02-23T04:39:36.363Z,84.59
2019-02-23T04:42:05.914Z,84.00
2019-02-23T04:44:34.689Z,84.22
2019-02-23T04:47:03.936Z,84.56
2019-02-23T04:49:32.696Z,84.92
2019-02-23T04:52:01.785Z,85.52
2019-02-23T04:54:32.184Z,85.39
2019-02-23T04:57:00.950Z,86.01
2019-02-23T04:59:29.720Z,85.50
2019-02-23T05:01:58.583Z,84.92
2019-02-23T05:04:27.708Z,84.44
2019-02-23T05:06:56.520Z,85.16
2019-02-23T05:09:25.306Z,85.47
2019-02-23T05:11:54.378Z,85.35
2019-02-23T05:14:23.180Z,85.54
2019-02-23T05:16:52.054Z,85.71
2019-02-23T05:19:20.826Z,86.14
2019-02-23T05:21:49.631Z,86.30
2019-02-23T05:24:18.405Z,86.10
2019-02-23T05:26:47.179Z,86.68
2019-02-23T05:29:16.405Z,86.83
2019-02-23T05:31:45.241Z,87.14
2019-02-23T05:34:14.003Z,86.35
2019-02-23T05:36:42.853Z,85.82
2019-02-23T05:39:12.457Z,85.91
2019-02-23T05:41:41.563Z,86.04
2019-02-23T05:44:11.046Z,86.33
2019-02-23T05:46:40.885Z,86.61
2019-02-23T05:49:10.846Z,86.67
2019-02-23T05:51:39.925Z,86.34
2019-02-23T05:54:09.900Z,86.34
2019-02-23T05:56:39.342Z,86.76
2019-02-23T05:59:08.564Z,87.16
2019-02-23T06:01:37.465Z,86.96
2019-02-23T06:04:06.602Z,87.53
2019-02-23T06:06:35.777Z,87.35
2019-02-23T06:09:06.334Z,87.31
2019-02-23T06:11:36.120Z,87.19
2019-02-23T06:14:05.730Z,87.01
2019-02-23T06:16:34.986Z,87.61
2019-02-23T06:19:03.803Z,88.35
2019-02-23T06:21:33.359Z,88.35
2019-02-23T06:24:02.132Z,87.87
2019-02-23T06:26:30.946Z,88.18
2019-02-23T06:28:59.726Z,88.34
2019-02-23T06:31:28.509Z,88.41
2019-02-23T06:33:57.313Z,88.25
2019-02-23T06:36:26.121Z,88.59
2019-02-23T06:38:55.276Z,88.13
2019-02-23T06:41:24.046Z,87.84
2019-02-23T06:43:52.841Z,87.98
2019-02-23T06:46:21.996Z,87.76
2019-02-23T06:48:50.946Z,87.56
2019-02-23T06:51:20.471Z,87.48
2019-02-23T06:53:49.267Z,87.54
2019-02-23T06:56:18.151Z,87.94
2019-02-23T06:58:46.926Z,88.06
2019-02-23T07:01:16.103Z,87.87
2019-02-23T07:03:44.993Z,87.94
2019-02-23T07:06:13.835Z,87.42
2019-02-23T07:08:42.998Z,87.07
2019-02-23T07:11:21.361Z,86.88
2019-02-23T07:13:59.951Z,86.91
2019-02-23T07:16:29.415Z,86.82
2019-02-23T07:18:58.205Z,86.58
2019-02-23T07:21:27.170Z,85.80
2019-02-23T07:23:56.350Z,85.20
2019-02-23T07:26:25.156Z,84.27
2019-02-23T07:28:53.920Z,84.07
2019-02-23T07:31:22.694Z,83.48
2019-02-23T07:33:51.497Z,83.36
2019-02-23T07:36:20.270Z,83.05
2019-02-23T07:38:49.089Z,81.63
2019-02-23T07:41:17.858Z,81.73
2019-02-23T07:43:46.660Z,81.80
2019-02-23T07:46:15.431Z,79.33
2019-02-23T07:48:44.228Z,77.44
2019-02-23T07:51:12.995Z,76.95
2019-02-23T07:53:41.754Z,76.68
2019-02-23T07:56:10.559Z,76.41
2019-02-23T07:58:39.344Z,75.70
2019-02-23T08:01:08.103Z,74.73
2019-02-23T08:03:37.001Z,74.83
2019-02-23T08:06:05.844Z,73.69
2019-02-23T08:08:34.657Z,73.13
2019-02-23T08:11:03.435Z,70.20
2019-02-23T08:13:32.318Z,70.04
2019-02-23T08:16:01.259Z,68.16
2019-02-23T08:18:30.120Z,66.77
2019-02-23T08:20:58.922Z,65.06
2019-02-23T08:23:27.998Z,64.99
2019-02-23T08:25:57.172Z,64.46
2019-02-23T08:28:25.975Z,64.71
2019-02-23T08:30:54.753Z,62.94
2019-02-23T08:33:23.547Z,61.35
2019-02-23T08:35:52.306Z,61.88
2019-02-23T08:38:21.167Z,61.38
2019-02-23T08:40:49.975Z,60.34
2019-02-23T08:43:20.691Z,59.70
2019-02-23T08:45:49.319Z,58.86
2019-02-23T08:48:18.083Z,58.25
2019-02-23T08:50:46.886Z,58.21
2019-02-23T08:53:15.723Z,57.69
2019-02-23T08:55:44.650Z,57.59
2019-02-23T08:58:13.516Z,57.75
2019-02-23T09:00:42.356Z,57.88
2019-02-23T09:03:11.113Z,57.55
2019-02-23T09:05:39.981Z,57.04
2019-02-23T09:08:09.115Z,56.65
2019-02-23T09:10:37.982Z,56.05
2019-02-23T09:13:06.748Z,55.81
2019-02-23T09:15:35.878Z,55.68
2019-02-23T09:18:04.676Z,55.21
2019-02-23T09:20:33.510Z,55.31
2019-02-23T09:23:02.280Z,55.48
2019-02-23T09:25:31.047Z,54.64
2019-02-23T09:27:59.850Z,53.85
2019-02-23T09:30:29.005Z,54.28
2019-02-23T09:32:57.834Z,54.03
2019-02-23T09:35:26.958Z,53.96
2019-02-23T09:37:55.845Z,54.35
2019-02-23T09:40:24.630Z,55.08
2019-02-23T09:42:53.755Z,55.15
2019-02-23T09:45:22.565Z,55.75
2019-02-23T09:47:51.949Z,56.50
2019-02-23T09:50:20.710Z,55.88
2019-02-23T09:52:49.572Z,55.95
2019-02-23T09:55:18.414Z,54.90
2019-02-23T09:57:47.212Z,53.94
2019-02-23T10:00:16.120Z,53.36
2019-02-23T10:02:44.933Z,53.21
2019-02-23T10:05:14.099Z,53.22
2019-02-23T10:07:42.870Z,51.73
2019-02-23T10:10:11.845Z,51.74
2019-02-23T10:12:40.709Z,49.87
2019-02-23T10:15:09.687Z,48.48
2019-02-23T10:17:38.474Z,48.84
2019-02-23T10:20:08.569Z,47.91
2019-02-23T10:22:39.504Z,46.24
2019-02-23T10:25:08.572Z,47.80
2019-02-23T10:27:37.419Z,46.36
2019-02-23T10:30:07.300Z,46.63
2019-02-23T10:32:36.102Z,46.75
2019-02-23T10:35:04.952Z,45.94
2019-02-23T10:37:33.743Z,44.72
2019-02-23T10:40:02.649Z,43.51
2019-02-23T10:42:31.417Z,41.60
2019-02-23T10:45:00.336Z,41.18
2019-02-23T10:47:29.071Z,41.13
2019-02-23T10:49:57.956Z,40.08
2019-02-23T10:52:27.149Z,39.37
2019-02-23T10:54:55.992Z,41.42
2019-02-23T10:57:24.906Z,41.27
2019-02-23T10:59:53.769Z,41.35
2019-02-23T11:02:22.900Z,40.83
2019-02-23T11:04:51.778Z,40.25
2019-02-23T11:07:20.586Z,39.00
2019-02-23T11:09:49.426Z,39.32
2019-02-23T11:12:18.289Z,38.61
2019-02-23T11:14:47.098Z,38.03
2019-02-23T11:17:16.373Z,39.41
2019-02-23T11:19:45.276Z,39.12
2019-02-23T11:22:14.223Z,38.59
2019-02-23T11:24:43.095Z,40.53
2019-02-23T11:27:13.030Z,40.12
2019-02-23T11:29:41.805Z,39.28
2019-02-23T11:32:10.572Z,37.82
2019-02-23T11:34:39.370Z,37.04
2019-02-23T11:37:08.238Z,35.98
2019-02-23T11:39:37.050Z,34.24
2019-02-23T11:42:05.906Z,32.99
2019-02-23T11:44:34.746Z,32.12
2019-02-23T11:47:03.563Z,30.76
2019-02-23T11:49:32.390Z,31.30
2019-02-23T11:52:01.165Z,29.38
2019-02-23T11:54:29.968Z,28.87
2019-02-23T11:56:59.034Z,28.01
2019-02-23T11:59:27.914Z,27.16
2019-02-23T12:01:56.695Z,27.65
2019-02-23T12:04:25.499Z,25.53
2019-02-23T12:06:54.312Z,25.48
2019-02-23T12:09:23.101Z,25.46
2019-02-23T12:11:51.941Z,25.98
2019-02-23T12:14:20.725Z,25.19
2019-02-23T12:16:49.509Z,23.86
2019-02-23T12:19:18.320Z,23.92
2019-02-23T12:21:47.168Z,23.44
2019-02-23T12:24:15.973Z,23.43
2019-02-23T12:26:44.746Z,22.98
2019-02-23T12:29:13.551Z,22.47
2019-02-23T12:31:42.318Z,21.18
2019-02-23T12:34:11.089Z,20.49
2019-02-23T12:36:39.888Z,21.18
2019-02-23T12:39:08.835Z,23.92
2019-02-23T12:41:37.633Z,23.92
2019-02-23T12:44:06.416Z,22.99
2019-02-23T12:46:35.221Z,23.02
2019-02-23T12:49:04.062Z,21.32
2019-02-23T12:51:32.861Z,20.06
2019-02-23T12:54:01.636Z,18.65
2019-02-23T12:56:30.403Z,18.32
2019-02-23T12:58:59.203Z,16.95
2019-02-23T13:01:28.099Z,17.72
2019-02-23T13:03:56.870Z,18.72
2019-02-23T13:06:25.651Z,17.40
2019-02-23T13:09:24.671Z,16.53
2019-02-23T13:12:21.000Z,16.97
2019-02-23T13:15:29.011Z,17.32
2019-02-23T13:18:20.235Z,17.17
2019-02-23T13:21:02.121Z,16.23
2019-02-23T13:24:03.080Z,16.44
2019-02-23T13:27:05.801Z,15.89
2019-02-23T13:30:17.494Z,15.30
2019-02-23T13:33:30.227Z,14.82
2019-02-23T13:36:33.894Z,15.20
2019-02-23T13:39:30.079Z,14.76
2019-02-23T13:42:29.843Z,15.00
2019-02-23T13:45:09.934Z,15.93
2019-02-23T13:48:11.454Z,16.39
2019-02-23T13:50:58.135Z,16.64
2019-02-23T13:53:35.744Z,17.38
2019-02-23T13:56:55.189Z,17.65
2019-02-23T13:59:56.571Z,18.64
2019-02-23T14:03:11.555Z,19.08
2019-02-23T14:05:50.755Z,19.28
2019-02-23T14:08:44.704Z,17.64
2019-02-23T14:11:48.969Z,18.71
2019-02-23T14:14:51.999Z,18.71
2019-02-23T14:17:31.594Z,18.02
2019-02-23T14:20:09.827Z,18.16
2019-02-23T14:23:03.171Z,20.86
2019-02-23T14:25:59.850Z,20.49
2019-02-23T14:28:47.137Z,21.38
2019-02-23T14:32:01.055Z,21.41
2019-02-23T14:34:56.015Z,21.55
2019-02-23T14:38:05.112Z,19.51
2019-02-23T14:41:19.812Z,17.93
2019-02-23T14:44:20.763Z,16.01
2019-02-23T14:47:33.693Z,16.01
2019-02-23T14:50:42.641Z,16.81
2019-02-23T14:53:34.184Z,16.95
2019-02-23T14:56:59.046Z,16.88
2019-02-23T15:00:17.877Z,16.88
2019-02-23T15:03:23.751Z,16.83
2019-02-23T15:06:32.049Z,16.49
2019-02-23T15:09:41.217Z,16.92
2019-02-23T15:12:34.667Z,17.32
2019-02-23T15:15:41.166Z,17.32
2019-02-23T15:18:48.205Z,15.80
2019-02-23T15:21:49.553Z,15.68
2019-02-23T15:24:53.286Z,16.90
2019-02-23T15:27:47.371Z,18.00
2019-02-23T15:30:32.641Z,17.57
2019-02-23T15:33:42.826Z,18.48
2019-02-23T15:36:42.722Z,18.39
2019-02-23T15:39:44.027Z,17.78
2019-02-23T15:42:57.389Z,18.23
2019-02-23T15:45:43.828Z,19.59
2019-02-23T15:48:56.954Z,20.70
2019-02-23T15:51:25.874Z,22.31
2019-02-23T15:53:54.804Z,24.54
2019-02-23T15:56:23.598Z,27.16
2019-02-23T15:58:52.797Z,27.26
2019-02-23T16:01:21.598Z,27.60
2019-02-23T16:03:50.370Z,28.04
2019-02-23T16:06:19.213Z,29.52
2019-02-23T16:08:48.017Z,32.62
2019-02-23T16:11:16.878Z,35.44
2019-02-23T16:13:46.073Z,36.63
2019-02-23T16:16:14.958Z,38.55
2019-02-23T16:18:43.806Z,40.04
2019-02-23T16:21:12.684Z,40.71
2019-02-23T16:23:42.726Z,41.12
2019-02-23T16:26:12.625Z,41.40
2019-02-23T16:28:41.460Z,41.30
2019-02-23T16:31:10.681Z,41.57
2019-02-23T16:33:39.645Z,40.60
2019-02-23T16:36:08.412Z,41.28
2019-02-23T16:38:37.305Z,41.71
2019-02-23T16:41:06.420Z,42.09
2019-02-23T16:43:35.599Z,42.56
2019-02-23T16:46:05.105Z,43.44
2019-02-23T16:48:34.580Z,44.26
2019-02-23T16:51:03.789Z,45.63
2019-02-23T16:53:33.156Z,47.14
2019-02-23T16:56:02.654Z,48.28
2019-02-23T16:58:31.811Z,49.07
2019-02-23T17:01:04.224Z,49.58
2019-02-23T17:03:32.566Z,50.84
2019-02-23T17:06:02.062Z,52.88
2019-02-23T17:08:30.840Z,54.53
2019-02-23T17:11:00.792Z,55.78
2019-02-23T17:13:30.707Z,56.64
2019-02-23T17:16:00.569Z,58.08
2019-02-23T17:18:29.802Z,59.47
2019-02-23T17:20:59.742Z,61.33
2019-02-23T17:23:28.944Z,61.61
2019-02-23T17:26:04.966Z,61.22
2019-02-23T17:28:29.737Z,61.96
2019-02-23T17:30:58.846Z,62.43
2019-02-23T17:33:28.181Z,63.88
2019-02-23T17:35:57.361Z,64.75
2019-02-23T17:38:26.161Z,68.61
2019-02-23T17:40:54.933Z,67.56
2019-02-23T17:43:23.695Z,64.44
2019-02-23T17:45:52.566Z,65.59
2019-02-23T17:48:21.453Z,64.42
2019-02-23T17:50:50.775Z,65.35
2019-02-23T17:53:19.665Z,68.52
2019-02-23T17:55:48.459Z,69.66
2019-02-23T17:58:17.263Z,68.05
2019-02-23T18:00:46.022Z,69.76
2019-02-23T18:03:15.135Z,69.86
2019-02-23T18:05:43.937Z,68.19
2019-02-23T18:08:13.092Z,68.05
2019-02-23T18:10:42.187Z,69.18
2019-02-23T18:13:12.031Z,71.42
2019-02-23T18:15:41.342Z,71.90
2019-02-23T18:18:10.181Z,72.91
2019-02-23T18:20:38.969Z,73.61
2019-02-23T18:23:08.143Z,73.39
2019-02-23T18:25:37.309Z,73.71
2019-02-23T18:28:06.405Z,75.10
2019-02-23T18:30:35.603Z,74.92
2019-02-23T18:33:04.367Z,72.55
2019-02-23T18:35:34.292Z,72.94
2019-02-23T18:38:03.737Z,74.48
2019-02-23T18:40:33.664Z,71.59
2019-02-23T18:43:02.635Z,70.15
2019-02-23T18:45:32.626Z,70.10
2019-02-23T18:48:02.547Z,70.16
2019-02-23T18:50:31.309Z,69.80
2019-02-23T18:53:00.124Z,70.41
2019-02-23T18:55:29.268Z,72.59
2019-02-23T18:57:58.076Z,74.26
2019-02-23T19:00:26.981Z,73.86
2019-02-23T19:02:55.793Z,74.20
2019-02-23T19:05:24.564Z,74.40
2019-02-23T19:07:53.320Z,71.79
2019-02-23T19:10:22.120Z,72.26
2019-02-23T19:12:51.189Z,73.10
2019-02-23T19:15:20.388Z,73.39
2019-02-23T19:17:49.192Z,72.91
2019-02-23T19:20:18.272Z,72.93
2019-02-23T19:22:47.497Z,73.13
2019-02-23T19:25:17.370Z,74.33
2019-02-23T19:27:47.149Z,75.07
2019-02-23T19:30:16.091Z,74.29
2019-02-23T19:32:45.223Z,75.79
2019-02-23T19:35:14.858Z,77.35
2019-02-23T19:37:44.362Z,78.09
2019-02-23T19:40:13.192Z,77.66
2019-02-23T19:42:42.057Z,78.00
2019-02-23T19:45:11.689Z,77.92
2019-02-23T19:47:42.620Z,78.22
2019-02-23T19:50:15.934Z,78.86
2019-02-23T19:52:45.393Z,79.19
2019-02-23T19:55:16.910Z,78.76
2019-02-23T19:57:46.973Z,77.85
2019-02-23T20:00:16.157Z,77.91
2019-02-23T20:02:45.364Z,78.25
2019-02-23T20:05:14.618Z,78.40
2019-02-23T20:07:43.709Z,77.81
2019-02-23T20:10:14.315Z,77.73
2019-02-23T20:12:44.142Z,78.32
2019-02-23T20:15:13.705Z,75.98
2019-02-23T20:17:43.413Z,75.69
2019-02-23T20:20:13.365Z,75.67
2019-02-23T20:22:42.586Z,76.23
2019-02-23T20:25:11.460Z,77.76
2019-02-23T20:27:40.286Z,76.23
2019-02-23T20:30:09.943Z,75.34
2019-02-23T20:32:38.809Z,76.03
2019-02-23T20:35:08.178Z,76.08
2019-02-23T20:37:37.042Z,76.08
2019-02-23T20:40:07.596Z,76.82
2019-02-23T20:42:36.787Z,77.71
2019-02-23T20:45:06.141Z,78.70
2019-02-23T20:47:35.467Z,80.07
2019-02-23T20:50:04.875Z,80.28
2019-02-23T20:52:33.640Z,81.27
2019-02-23T20:55:03.164Z,81.71
2019-02-23T20:57:32.066Z,81.96
2019-02-23T21:00:00.849Z,82.58
2019-02-23T21:02:29.622Z,83.43
2019-02-23T21:04:58.850Z,83.29
2019-02-23T21:07:27.646Z,82.44
2019-02-23T21:09:56.491Z,82.14
2019-02-23T21:12:25.304Z,81.23
2019-02-23T21:14:54.073Z,80.71
2019-02-23T21:17:23.179Z,80.80
2019-02-23T21:19:51.985Z,80.02
2019-02-23T21:22:21.063Z,81.05
2019-02-23T21:24:49.855Z,79.96
2019-02-23T21:27:18.658Z,80.25
2019-02-23T21:29:47.932Z,80.30
2019-02-23T21:32:17.509Z,80.63
2019-02-23T21:34:46.748Z,80.68
2019-02-23T21:37:16.218Z,80.86
2019-02-23T21:39:45.325Z,81.29
2019-02-23T21:42:14.100Z,81.61
2019-02-23T21:44:43.164Z,82.31
2019-02-23T21:47:11.962Z,82.90
2019-02-23T21:49:40.832Z,83.25
2019-02-23T21:52:09.944Z,83.53
2019-02-23T21:54:39.151Z,83.41
2019-02-23T21:57:08.321Z,82.87
2019-02-23T21:59:37.528Z,82.70
2019-02-23T22:02:06.326Z,82.46
2019-02-23T22:04:35.110Z,82.75
2019-02-23T22:07:04.605Z,81.99
2019-02-23T22:09:33.838Z,82.18
2019-02-23T22:12:02.681Z,82.21
2019-02-23T22:14:31.787Z,81.55
2019-02-23T22:17:00.599Z,81.67
2019-02-23T22:19:29.682Z,82.08
2019-02-23T22:21:58.802Z,82.65
2019-02-23T22:24:27.612Z,82.00
2019-02-23T22:26:56.713Z,81.83
2019-02-23T22:29:25.509Z,82.42
2019-02-23T22:31:54.338Z,82.05
2019-02-23T22:34:23.139Z,81.89
2019-02-23T22:36:51.944Z,82.57
2019-02-23T22:39:20.738Z,83.13
2019-02-23T22:41:49.973Z,84.43
2019-02-23T22:44:18.743Z,83.77
2019-02-23T22:46:47.564Z,83.84
2019-02-23T22:49:16.366Z,84.37
2019-02-23T22:51:45.230Z,84.62
2019-02-23T22:54:14.397Z,84.97
2019-02-23T22:56:43.237Z,85.01
2019-02-23T22:59:12.484Z,84.48
2019-02-23T23:01:41.395Z,83.89
2019-02-23T23:04:10.595Z,84.40
2019-02-23T23:06:39.802Z,84.03
2019-02-23T23:09:14.820Z,84.61
2019-02-23T23:11:44.032Z,84.16
2019-02-23T23:14:13.083Z,83.95
2019-02-23T23:16:42.201Z,84.29
2019-02-23T23:19:11.407Z,84.34
2019-02-23T23:21:40.235Z,83.66
2019-02-23T23:24:09.310Z,83.66
2019-02-23T23:26:38.139Z,83.67
2019-02-23T23:29:06.990Z,83.82
2019-02-23T23:31:35.795Z,83.74
2019-02-23T23:34:04.922Z,84.25
2019-02-23T23:36:34.098Z,84.64
2019-02-23T23:39:02.885Z,85.20
2019-02-23T23:41:32.049Z,85.38
2019-02-23T23:44:00.895Z,85.51
2019-02-23T23:46:29.730Z,85.38
2019-02-23T23:48:59.230Z,85.20
2019-02-23T23:51:28.110Z,85.63
2019-02-23T23:53:57.187Z,85.60
2019-02-23T23:56:25.945Z,86.32
2019-02-23T23:58:54.741Z,86.19
